Gulbeniz A — TCZK8 — position and weather

sailwx.info

Track history (hours):
 
Tides and Currents Weather Stations Pressure Air Temp Water Temp Dewpoint Dewpoint Depression Visibility Wind Speed Wind Dir Waves Ship Positions

Gulbeniz A

Last reported at 2016-Jun-28 04:33 UTC. Time now 2016-Jul-27 22:59 UTC.
Position N 37°27' E 024°03'.
Warning: this ship's position is 29 days out of date.

Length 210 m; draft 7.5 m.

Type: Cargo ship. MMSI: 271042493.

Date/timePositionNaut miles runAvg speedWind from/ knotsBaromVisibWave heightAir tempDewpointWater temp
2016-Jun-28 04:33N 37°27' E 024°03'1111.4
2016-Jun-28 03:33N 37°16' E 023°58'1111.1
2016-Jun-28 02:32N 37°05' E 023°53'1111.0
2016-Jun-28 01:33N 36°55' E 023°48'1110.8
2016-Jun-28 00:33N 36°46' E 023°43'1111.1
2016-Jun-27 23:33N 36°37' E 023°34'1111.0
2016-Jun-27 22:33N 36°29' E 023°25'1110.6
2016-Jun-27 21:33N 36°23' E 023°14'37211.5
2016-Jun-26 13:13N 36°20' E 015°32'811.4
2016-Jun-26 12:33N 36°20' E 015°23'1211.5
2016-Jun-26 11:33N 36°20' E 015°09'1211.9
2016-Jun-26 10:33N 36°20' E 014°54'1211.8
2016-Jun-26 09:33N 36°20' E 014°39'1211.6
2016-Jun-26 08:33N 36°20' E 014°25'1111.4
2016-Jun-26 07:33N 36°20' E 014°11'1211.6
2016-Jun-26 06:33N 36°24' E 013°57'1211.8
2016-Jun-26 05:33N 36°28' E 013°43'1211.8
2016-Jun-26 04:33N 36°33' E 013°30'9511.8
2016-Jun-25 20:30N 37°09' E 011°40'1212.4
2016-Jun-25 19:30N 37°15' E 011°26'1211.8
2016-Jun-25 18:31N 37°21' E 011°14'1312.0
2016-Jun-25 17:28N 37°26' E 010°59'1212.5
2016-Jun-25 16:31N 37°30' E 010°45'2712.4
2016-Jun-25 14:19N 37°34' E 010°11'29012.0
2016-Jun-24 14:08N 38°42' E 004°13'1811.5
2016-Jun-24 12:32N 38°45' E 003°49'1111.4
2016-Jun-24 11:32N 38°47' E 003°35'1111.4
2016-Jun-24 10:33N 38°49' E 003°21'1111.4
2016-Jun-24 09:34N 38°51' E 003°06'1111.3
2016-Jun-24 08:34N 38°52' E 002°52'1111.2
2016-Jun-24 07:33N 38°55' E 002°38'3511.8
2016-Jun-24 04:33N 39°09' E 001°56'1211.9
2016-Jun-24 03:33N 39°14' E 001°42'1212.0
2016-Jun-24 02:33N 39°18' E 001°28'1212.4
2016-Jun-24 01:33N 39°20' E 001°12'1212.1
2016-Jun-24 00:33N 39°21' E 000°56'5211.7
2016-Jun-23 20:08N 39°25' W 000°10'610.8
2016-Jun-23 19:33N 39°26' W 000°18'1 0.8
2016-Jun-23 18:31N 39°27' W 000°19'0 0.0
2016-Jun-23 16:10N 39°27' W 000°19'0 0.0
2016-Jun-23 15:31N 39°27' W 000°19'0 0.0
2016-Jun-23 14:31N 39°27' W 000°19'0 0.0
2016-Jun-23 13:31N 39°27' W 000°19'0 0.0
2016-Jun-23 12:28N 39°27' W 000°19'0 0.0
2016-Jun-23 11:31N 39°27' W 000°19'0 0.0
2016-Jun-23 10:31N 39°27' W 000°19'0 0.0
2016-Jun-23 09:31N 39°27' W 000°19'0 0.0
2016-Jun-23 08:31N 39°27' W 000°19'0 0.0
2016-Jun-23 07:28N 39°27' W 000°19'0 0.0
2016-Jun-23 05:31N 39°27' W 000°19'0 0.0
2016-Jun-23 04:31N 39°27' W 000°19'0 0.0
2016-Jun-23 03:31N 39°27' W 000°19'0 0.0
2016-Jun-23 02:31N 39°27' W 000°19'0 0.0
2016-Jun-23 01:31N 39°27' W 000°19'0 0.0
2016-Jun-23 00:31N 39°27' W 000°19'0 0.0
2016-Jun-22 23:31N 39°27' W 000°19'0 0.0
2016-Jun-22 22:33N 39°27' W 000°19'0 0.0
2016-Jun-22 21:30N 39°27' W 000°19'0 0.0
2016-Jun-22 20:31N 39°27' W 000°19'0 0.0
2016-Jun-22 19:31N 39°27' W 000°19'0 0.0
2016-Jun-22 18:33N 39°27' W 000°19'0 0.0
2016-Jun-22 17:32N 39°27' W 000°19'3 2.7
2016-Jun-22 16:33N 39°25' W 000°17'2 0.2
2016-Jun-22 04:33N 39°23' W 000°15'1512.4
2016-Jun-22 03:23N 39°12' W 000°03'4014.2
2016-Jun-22 00:33N 38°38' E 000°25'1515.2
2016-Jun-21 23:33N 38°26' E 000°14'5115.0
2016-Jun-21 20:08N 37°43' W 000°22'915.0
2016-Jun-21 19:31N 37°35' W 000°28'1515.2
2016-Jun-21 18:32N 37°25' W 000°42'1514.8
2016-Jun-21 17:33N 37°15' W 000°56'1714.4
2016-Jun-21 16:23N 37°04' W 001°12'8113.7
2016-Jun-21 10:28N 36°19' W 002°36'1314.1
2016-Jun-21 09:33N 36°17' W 002°52'10815.4
2016-Jun-21 02:32N 36°02' W 005°05'1616.7
2016-Jun-21 01:33N 35°58' W 005°24'2712.7
2016-Jun-20 23:27N 35°54' W 005°57'2712.6
2016-Jun-20 21:19N 35°38' W 006°24'1113.3
2016-Jun-20 20:29N 35°30' W 006°33'2613.5
2016-Jun-20 18:33N 35°13' W 006°57'1413.8
2016-Jun-20 17:34N 35°03' W 007°09'1414.0
2016-Jun-20 16:34N 34°54' W 007°22'1414.2
2016-Jun-20 15:34N 34°44' W 007°34'1414.2
2016-Jun-20 14:33N 34°34' W 007°47'1414.2
2016-Jun-20 13:32N 34°24' W 007°59'2914.4
2016-Jun-20 11:33N 34°05' W 008°25'1714.6
2016-Jun-20 10:22N 33°53' W 008°40'12014.5
2016-Jun-20 02:05N 32°22' W 010°14'713.7
2016-Jun-20 01:33N 32°16' W 010°19'1713.5
2016-Jun-20 00:18N 32°03' W 010°31'1413.2
2016-Jun-19 23:17N 31°52' W 010°41'1013.2
2016-Jun-19 22:33N 31°44' W 010°48'1413.0
2016-Jun-19 21:31N 31°33' W 010°57'1312.9
2016-Jun-19 20:29N 31°23' W 011°07'1212.9
2016-Jun-19 19:33N 31°13' W 011°15'1412.9
2016-Jun-19 18:30N 31°03' W 011°25'8113.6
2016-Jun-19 12:32N 29°57' W 012°21'13513.6
2016-Jun-19 02:33N 28°08' W 013°51'1513.9
2016-Jun-19 01:28N 27°56' W 014°02'1314.2
2016-Jun-19 00:33N 27°45' W 014°10'1814.0
2016-Jun-18 23:18N 27°31' W 014°22'  
Track history (hours):
 
Tides and Currents Weather Stations Pressure Air Temp Water Temp Dewpoint Dewpoint Depression Visibility Wind Speed Wind Dir Waves Ship Positions

Gulbeniz A

Last reported at 2016-Jun-28 04:33 UTC. Time now 2016-Jul-27 22:59 UTC.
Position N 37°27' E 024°03'.
Warning: this ship's position is 29 days out of date.

Length 210 m; draft 7.5 m.

Type: Cargo ship. MMSI: 271042493.

Date/timePositionNaut miles runAvg speedWind from/ knotsBaromVisibWave heightAir tempDewpointWater temp
2016-Jun-28 04:33N 37°27' E 024°03'1111.4
2016-Jun-28 03:33N 37°16' E 023°58'1111.1
2016-Jun-28 02:32N 37°05' E 023°53'1111.0
2016-Jun-28 01:33N 36°55' E 023°48'1110.8
2016-Jun-28 00:33N 36°46' E 023°43'1111.1
2016-Jun-27 23:33N 36°37' E 023°34'1111.0
2016-Jun-27 22:33N 36°29' E 023°25'1110.6
2016-Jun-27 21:33N 36°23' E 023°14'37211.5
2016-Jun-26 13:13N 36°20' E 015°32'811.4
2016-Jun-26 12:33N 36°20' E 015°23'1211.5
2016-Jun-26 11:33N 36°20' E 015°09'1211.9
2016-Jun-26 10:33N 36°20' E 014°54'1211.8
2016-Jun-26 09:33N 36°20' E 014°39'1211.6
2016-Jun-26 08:33N 36°20' E 014°25'1111.4
2016-Jun-26 07:33N 36°20' E 014°11'1211.6
2016-Jun-26 06:33N 36°24' E 013°57'1211.8
2016-Jun-26 05:33N 36°28' E 013°43'1211.8
2016-Jun-26 04:33N 36°33' E 013°30'9511.8
2016-Jun-25 20:30N 37°09' E 011°40'1212.4
2016-Jun-25 19:30N 37°15' E 011°26'1211.8
2016-Jun-25 18:31N 37°21' E 011°14'1312.0
2016-Jun-25 17:28N 37°26' E 010°59'1212.5
2016-Jun-25 16:31N 37°30' E 010°45'2712.4
2016-Jun-25 14:19N 37°34' E 010°11'29012.0
2016-Jun-24 14:08N 38°42' E 004°13'1811.5
2016-Jun-24 12:32N 38°45' E 003°49'1111.4
2016-Jun-24 11:32N 38°47' E 003°35'1111.4
2016-Jun-24 10:33N 38°49' E 003°21'1111.4
2016-Jun-24 09:34N 38°51' E 003°06'1111.3
2016-Jun-24 08:34N 38°52' E 002°52'1111.2
2016-Jun-24 07:33N 38°55' E 002°38'3511.8
2016-Jun-24 04:33N 39°09' E 001°56'1211.9
2016-Jun-24 03:33N 39°14' E 001°42'1212.0
2016-Jun-24 02:33N 39°18' E 001°28'1212.4
2016-Jun-24 01:33N 39°20' E 001°12'1212.1
2016-Jun-24 00:33N 39°21' E 000°56'5211.7
2016-Jun-23 20:08N 39°25' W 000°10'610.8
2016-Jun-23 19:33N 39°26' W 000°18'1 0.8
2016-Jun-23 18:31N 39°27' W 000°19'0 0.0
2016-Jun-23 16:10N 39°27' W 000°19'0 0.0
2016-Jun-23 15:31N 39°27' W 000°19'0 0.0
2016-Jun-23 14:31N 39°27' W 000°19'0 0.0
2016-Jun-23 13:31N 39°27' W 000°19'0 0.0
2016-Jun-23 12:28N 39°27' W 000°19'0 0.0
2016-Jun-23 11:31N 39°27' W 000°19'0 0.0
2016-Jun-23 10:31N 39°27' W 000°19'0 0.0
2016-Jun-23 09:31N 39°27' W 000°19'0 0.0
2016-Jun-23 08:31N 39°27' W 000°19'0 0.0
2016-Jun-23 07:28N 39°27' W 000°19'0 0.0
2016-Jun-23 05:31N 39°27' W 000°19'0 0.0
2016-Jun-23 04:31N 39°27' W 000°19'0 0.0
2016-Jun-23 03:31N 39°27' W 000°19'0 0.0
2016-Jun-23 02:31N 39°27' W 000°19'0 0.0
2016-Jun-23 01:31N 39°27' W 000°19'0 0.0
2016-Jun-23 00:31N 39°27' W 000°19'0 0.0
2016-Jun-22 23:31N 39°27' W 000°19'0 0.0
2016-Jun-22 22:33N 39°27' W 000°19'0 0.0
2016-Jun-22 21:30N 39°27' W 000°19'0 0.0
2016-Jun-22 20:31N 39°27' W 000°19'0 0.0
2016-Jun-22 19:31N 39°27' W 000°19'0 0.0
2016-Jun-22 18:33N 39°27' W 000°19'0 0.0
2016-Jun-22 17:32N 39°27' W 000°19'3 2.7
2016-Jun-22 16:33N 39°25' W 000°17'2 0.2
2016-Jun-22 04:33N 39°23' W 000°15'1512.4
2016-Jun-22 03:23N 39°12' W 000°03'4014.2
2016-Jun-22 00:33N 38°38' E 000°25'1515.2
2016-Jun-21 23:33N 38°26' E 000°14'5115.0
2016-Jun-21 20:08N 37°43' W 000°22'915.0
2016-Jun-21 19:31N 37°35' W 000°28'1515.2
2016-Jun-21 18:32N 37°25' W 000°42'1514.8
2016-Jun-21 17:33N 37°15' W 000°56'1714.4
2016-Jun-21 16:23N 37°04' W 001°12'8113.7
2016-Jun-21 10:28N 36°19' W 002°36'1314.1
2016-Jun-21 09:33N 36°17' W 002°52'10815.4
2016-Jun-21 02:32N 36°02' W 005°05'1616.7
2016-Jun-21 01:33N 35°58' W 005°24'2712.7
2016-Jun-20 23:27N 35°54' W 005°57'2712.6
2016-Jun-20 21:19N 35°38' W 006°24'1113.3
2016-Jun-20 20:29N 35°30' W 006°33'2613.5
2016-Jun-20 18:33N 35°13' W 006°57'1413.8
2016-Jun-20 17:34N 35°03' W 007°09'1414.0
2016-Jun-20 16:34N 34°54' W 007°22'1414.2
2016-Jun-20 15:34N 34°44' W 007°34'1414.2
2016-Jun-20 14:33N 34°34' W 007°47'1414.2
2016-Jun-20 13:32N 34°24' W 007°59'2914.4
2016-Jun-20 11:33N 34°05' W 008°25'1714.6
2016-Jun-20 10:22N 33°53' W 008°40'12014.5
2016-Jun-20 02:05N 32°22' W 010°14'713.7
2016-Jun-20 01:33N 32°16' W 010°19'1713.5
2016-Jun-20 00:18N 32°03' W 010°31'1413.2
2016-Jun-19 23:17N 31°52' W 010°41'1013.2
2016-Jun-19 22:33N 31°44' W 010°48'1413.0
2016-Jun-19 21:31N 31°33' W 010°57'1312.9
2016-Jun-19 20:29N 31°23' W 011°07'1212.9
2016-Jun-19 19:33N 31°13' W 011°15'1412.9
2016-Jun-19 18:30N 31°03' W 011°25'8113.6
2016-Jun-19 12:32N 29°57' W 012°21'13513.6
2016-Jun-19 02:33N 28°08' W 013°51'1513.9
2016-Jun-19 01:28N 27°56' W 014°02'1314.2
2016-Jun-19 00:33N 27°45' W 014°10'1814.0
2016-Jun-18 23:18N 27°31' W 014°22'  

Dump ship's entire track history